createdAt,value
2019-03-23T00:00:42.848Z,94.57
2019-03-23T00:03:13.889Z,94.50
2019-03-23T00:05:53.714Z,94.48
2019-03-23T00:08:24.832Z,94.84
2019-03-23T00:10:55.768Z,96.03
2019-03-23T00:13:26.788Z,96.12
2019-03-23T00:16:03.930Z,95.60
2019-03-23T00:18:34.877Z,95.63
2019-03-23T00:21:05.883Z,95.85
2019-03-23T00:23:37.118Z,96.20
2019-03-23T00:26:16.202Z,96.51
2019-03-23T00:28:47.398Z,98.02
2019-03-23T00:31:18.576Z,97.30
2019-03-23T00:33:49.673Z,97.13
2019-03-23T00:36:20.471Z,97.10
2019-03-23T00:38:51.448Z,97.07
2019-03-23T00:41:22.333Z,98.53
2019-03-23T00:43:53.402Z,99.16
2019-03-23T00:46:24.483Z,98.77
2019-03-23T00:48:55.438Z,98.79
2019-03-23T00:51:26.395Z,98.46
2019-03-23T00:53:57.383Z,99.18
2019-03-23T00:56:28.276Z,99.66
2019-03-23T00:58:59.304Z,100.00
2019-03-23T01:01:30.369Z,100.00
2019-03-23T01:04:01.424Z,100.00
2019-03-23T01:06:32.428Z,100.00
2019-03-23T01:09:04.932Z,100.00
2019-03-23T01:11:35.842Z,100.00
2019-03-23T01:14:06.708Z,100.00
2019-03-23T01:16:37.673Z,100.00
2019-03-23T01:19:08.690Z,100.00
2019-03-23T01:21:39.682Z,100.00
2019-03-23T01:24:10.806Z,100.00
2019-03-23T01:26:41.755Z,100.00
2019-03-23T01:29:12.730Z,100.00
2019-03-23T01:31:43.744Z,100.00
2019-03-23T01:34:14.772Z,100.00
2019-03-23T01:36:45.719Z,100.00
2019-03-23T01:39:16.650Z,100.00
2019-03-23T01:41:47.530Z,100.00
2019-03-23T01:44:18.741Z,100.00
2019-03-23T01:46:49.691Z,100.00
2019-03-23T01:49:20.642Z,100.00
2019-03-23T01:51:51.945Z,100.00
2019-03-23T01:54:22.926Z,100.00
2019-03-23T01:56:53.974Z,100.00
2019-03-23T01:59:24.949Z,100.00
2019-03-23T02:01:56.013Z,100.00
2019-03-23T02:04:27.077Z,100.00
2019-03-23T02:06:58.028Z,100.00
2019-03-23T02:09:29.033Z,100.00
2019-03-23T02:11:59.999Z,100.00
2019-03-23T02:14:31.036Z,100.00
2019-03-23T02:17:01.952Z,100.00
2019-03-23T02:19:32.999Z,100.00
2019-03-23T02:22:03.961Z,100.00
2019-03-23T02:24:35.477Z,100.00
2019-03-23T02:27:07.072Z,100.00
2019-03-23T02:29:38.051Z,100.00
2019-03-23T02:32:08.987Z,100.00
2019-03-23T02:34:39.923Z,100.00
2019-03-23T02:37:10.853Z,100.00
2019-03-23T02:39:41.794Z,100.00
2019-03-23T02:42:12.889Z,100.00
2019-03-23T02:44:43.942Z,100.00
2019-03-23T02:47:15.044Z,100.00
2019-03-23T02:49:46.147Z,100.00
2019-03-23T02:52:17.127Z,100.00
2019-03-23T02:54:48.172Z,100.00
2019-03-23T02:57:19.235Z,100.00
2019-03-23T02:59:50.298Z,100.00
2019-03-23T03:02:21.342Z,100.00
2019-03-23T03:04:52.159Z,100.00
2019-03-23T03:07:26.806Z,100.00
2019-03-23T03:09:57.734Z,100.00
2019-03-23T03:12:28.640Z,100.00
2019-03-23T03:14:59.540Z,100.00
2019-03-23T03:17:30.426Z,100.00
2019-03-23T03:20:01.436Z,100.00
2019-03-23T03:22:32.395Z,100.00
2019-03-23T03:25:03.490Z,100.00
2019-03-23T03:27:34.560Z,100.00
2019-03-23T03:30:07.014Z,100.00
2019-03-23T03:32:37.937Z,100.00
2019-03-23T03:35:09.529Z,100.00
2019-03-23T03:37:40.520Z,100.00
2019-03-23T03:40:11.844Z,100.00
2019-03-23T03:42:42.834Z,100.00
2019-03-23T03:45:25.258Z,100.00
2019-03-23T03:47:56.543Z,100.00
2019-03-23T03:50:27.411Z,100.00
2019-03-23T03:52:58.287Z,100.00
2019-03-23T03:55:29.354Z,100.00
2019-03-23T03:58:00.235Z,100.00
2019-03-23T04:00:31.174Z,100.00
2019-03-23T04:03:02.415Z,100.00
2019-03-23T04:05:33.383Z,100.00
2019-03-23T04:08:11.379Z,100.00
2019-03-23T04:10:37.270Z,100.00
2019-03-23T04:13:08.173Z,100.00
2019-03-23T04:15:39.264Z,100.00
2019-03-23T04:18:10.330Z,100.00
2019-03-23T04:20:41.304Z,100.00
2019-03-23T04:23:12.295Z,100.00
2019-03-23T04:25:43.162Z,100.00
2019-03-23T04:28:14.158Z,100.00
2019-03-23T04:30:45.024Z,100.00
2019-03-23T04:33:15.974Z,100.00
2019-03-23T04:35:46.999Z,100.00
2019-03-23T04:38:22.456Z,100.00
2019-03-23T04:40:50.665Z,100.00
2019-03-23T04:43:21.803Z,100.00
2019-03-23T04:45:53.058Z,100.00
2019-03-23T04:48:23.991Z,100.00
2019-03-23T04:50:54.913Z,100.00
2019-03-23T04:53:25.962Z,100.00
2019-03-23T04:55:57.000Z,100.00
2019-03-23T04:58:28.047Z,100.00
2019-03-23T05:00:59.248Z,100.00
2019-03-23T05:03:30.200Z,100.00
2019-03-23T05:06:01.177Z,100.00
2019-03-23T05:08:33.673Z,100.00
2019-03-23T05:11:04.992Z,100.00
2019-03-23T05:13:35.914Z,100.00
2019-03-23T05:16:06.970Z,100.00
2019-03-23T05:18:38.432Z,100.00
2019-03-23T05:21:09.466Z,100.00
2019-03-23T05:23:40.551Z,100.00
2019-03-23T05:26:11.455Z,100.00
2019-03-23T05:28:42.516Z,100.00
2019-03-23T05:31:13.402Z,100.00
2019-03-23T05:33:44.356Z,100.00
2019-03-23T05:36:15.480Z,100.00
2019-03-23T05:38:46.628Z,100.00
2019-03-23T05:41:17.640Z,100.00
2019-03-23T05:43:48.526Z,100.00
2019-03-23T05:46:19.525Z,100.00
2019-03-23T05:48:50.470Z,100.00
2019-03-23T05:51:21.592Z,100.00
2019-03-23T05:53:52.564Z,100.00
2019-03-23T05:56:23.526Z,100.00
2019-03-23T05:58:56.585Z,100.00
2019-03-23T06:01:27.474Z,100.00
2019-03-23T06:03:58.872Z,100.00
2019-03-23T06:06:30.048Z,100.00
2019-03-23T06:09:01.023Z,100.00
2019-03-23T06:11:31.922Z,100.00
2019-03-23T06:14:03.007Z,100.00
2019-03-23T06:16:34.005Z,100.00
2019-03-23T06:19:05.023Z,100.00
2019-03-23T06:21:35.929Z,99.92
2019-03-23T06:24:07.012Z,98.67
2019-03-23T06:26:38.083Z,97.64
2019-03-23T06:29:09.124Z,96.85
2019-03-23T06:31:40.154Z,96.83
2019-03-23T06:34:11.084Z,96.23
2019-03-23T06:36:41.964Z,95.97
2019-03-23T06:39:13.059Z,96.04
2019-03-23T06:41:43.907Z,95.11
2019-03-23T06:44:14.873Z,94.51
2019-03-23T06:46:45.836Z,94.03
2019-03-23T06:49:21.801Z,92.76
2019-03-23T06:52:16.282Z,92.09
2019-03-23T06:54:53.258Z,90.62
2019-03-23T06:57:26.065Z,89.41
2019-03-23T06:59:56.979Z,88.49
2019-03-23T07:02:28.163Z,86.68
2019-03-23T07:04:59.153Z,84.96
2019-03-23T07:07:30.401Z,83.27
2019-03-23T07:10:01.274Z,80.43
2019-03-23T07:12:32.282Z,79.03
2019-03-23T07:15:04.615Z,78.15
2019-03-23T07:17:36.312Z,77.52
2019-03-23T07:20:12.494Z,77.71
2019-03-23T07:22:43.814Z,76.43
2019-03-23T07:25:16.495Z,74.09
2019-03-23T07:27:47.410Z,72.61
2019-03-23T07:30:18.879Z,71.23
2019-03-23T07:32:50.382Z,70.81
2019-03-23T07:35:21.943Z,68.21
2019-03-23T07:37:53.381Z,67.66
2019-03-23T07:40:24.598Z,65.11
2019-03-23T07:42:56.043Z,65.02
2019-03-23T07:45:27.153Z,64.14
2019-03-23T07:47:58.099Z,63.68
2019-03-23T07:50:29.937Z,62.71
2019-03-23T07:53:00.859Z,62.58
2019-03-23T07:55:32.059Z,62.44
2019-03-23T07:58:02.992Z,61.17
2019-03-23T08:00:33.971Z,60.04
2019-03-23T08:03:04.934Z,59.96
2019-03-23T08:05:36.025Z,58.78
2019-03-23T08:08:07.176Z,58.35
2019-03-23T08:10:38.298Z,57.46
2019-03-23T08:13:09.537Z,56.77
2019-03-23T08:15:40.633Z,56.78
2019-03-23T08:18:13.297Z,55.56
2019-03-23T08:20:45.024Z,54.24
2019-03-23T08:23:16.191Z,54.43
2019-03-23T08:25:47.264Z,52.58
2019-03-23T08:28:19.642Z,53.36
2019-03-23T08:30:50.858Z,50.79
2019-03-23T08:33:22.645Z,51.03
2019-03-23T08:35:55.298Z,51.69
2019-03-23T08:38:27.899Z,52.60
2019-03-23T08:40:59.010Z,51.14
2019-03-23T08:43:30.111Z,50.28
2019-03-23T08:46:01.074Z,50.44
2019-03-23T08:48:32.004Z,50.41
2019-03-23T08:51:03.064Z,48.51
2019-03-23T08:53:35.480Z,48.17
2019-03-23T08:56:06.429Z,48.86
2019-03-23T08:58:36.226Z,47.96
2019-03-23T09:01:07.276Z,46.85
2019-03-23T09:03:38.374Z,46.37
2019-03-23T09:06:09.359Z,45.71
2019-03-23T09:08:40.427Z,45.43
2019-03-23T09:11:20.221Z,44.09
2019-03-23T09:13:44.172Z,42.53
2019-03-23T09:16:15.159Z,41.36
2019-03-23T09:18:46.066Z,40.51
2019-03-23T09:21:17.085Z,39.72
2019-03-23T09:23:48.132Z,39.74
2019-03-23T09:26:19.226Z,40.23
2019-03-23T09:28:50.212Z,40.18
2019-03-23T09:31:21.232Z,38.84
2019-03-23T09:33:52.476Z,37.02
2019-03-23T09:36:23.480Z,36.63
2019-03-23T09:38:54.440Z,37.61
2019-03-23T09:41:25.526Z,38.07
2019-03-23T09:43:56.830Z,38.73
2019-03-23T09:46:27.808Z,36.63
2019-03-23T09:48:58.751Z,36.63
2019-03-23T09:51:29.799Z,35.21
2019-03-23T09:54:00.835Z,35.63
2019-03-23T09:56:31.989Z,35.42
2019-03-23T09:59:03.031Z,36.71
2019-03-23T10:01:34.362Z,34.98
2019-03-23T10:04:05.447Z,34.98
2019-03-23T10:06:36.474Z,31.53
2019-03-23T10:09:07.463Z,32.06
2019-03-23T10:11:38.683Z,31.75
2019-03-23T10:14:09.661Z,30.61
2019-03-23T10:16:40.916Z,30.14
2019-03-23T10:19:12.108Z,29.30
2019-03-23T10:21:43.257Z,29.30
2019-03-23T10:24:14.236Z,29.69
2019-03-23T10:26:45.377Z,30.07
2019-03-23T10:29:16.392Z,29.26
2019-03-23T10:31:47.423Z,30.03
2019-03-23T10:34:18.415Z,30.87
2019-03-23T10:36:49.401Z,30.85
2019-03-23T10:39:20.408Z,29.79
2019-03-23T10:41:51.800Z,30.72
2019-03-23T10:44:22.816Z,29.90
2019-03-23T10:46:53.723Z,30.96
2019-03-23T10:49:24.636Z,29.97
2019-03-23T10:51:55.616Z,31.47
2019-03-23T10:54:26.688Z,30.87
2019-03-23T10:56:57.786Z,30.59
2019-03-23T10:59:28.756Z,30.62
2019-03-23T11:01:59.899Z,30.60
2019-03-23T11:04:30.927Z,30.98
2019-03-23T11:07:01.872Z,29.77
2019-03-23T11:09:33.056Z,30.09
2019-03-23T11:12:04.174Z,29.13
2019-03-23T11:14:35.148Z,28.42
2019-03-23T11:17:06.249Z,27.42
2019-03-23T11:19:37.292Z,26.82
2019-03-23T11:22:10.055Z,26.55
2019-03-23T11:24:41.303Z,26.79
2019-03-23T11:27:12.399Z,26.85
2019-03-23T11:29:43.566Z,27.51
2019-03-23T11:32:14.542Z,26.74
2019-03-23T11:34:45.735Z,26.26
2019-03-23T11:37:17.129Z,26.40
2019-03-23T11:39:48.138Z,27.88
2019-03-23T11:42:19.265Z,26.47
2019-03-23T11:44:50.551Z,24.99
2019-03-23T11:47:21.580Z,23.91
2019-03-23T11:49:52.608Z,24.50
2019-03-23T11:52:23.695Z,24.50
2019-03-23T11:54:54.799Z,23.80
2019-03-23T11:57:26.045Z,23.80
2019-03-23T11:59:57.277Z,21.47
2019-03-23T12:02:31.722Z,20.95
2019-03-23T12:05:03.238Z,23.50
2019-03-23T12:07:37.179Z,21.35
2019-03-23T12:10:10.841Z,22.56
2019-03-23T12:12:41.936Z,21.98
2019-03-23T12:15:14.288Z,22.09
2019-03-23T12:17:45.375Z,23.77
2019-03-23T12:20:16.538Z,22.72
2019-03-23T12:22:47.739Z,22.72
2019-03-23T12:25:18.806Z,24.27
2019-03-23T12:27:49.851Z,22.61
2019-03-23T12:30:21.103Z,22.61
2019-03-23T12:32:52.444Z,22.96
2019-03-23T12:35:23.662Z,23.92
2019-03-23T12:37:56.007Z,23.50
2019-03-23T12:40:30.042Z,23.34
2019-03-23T12:43:01.160Z,23.96
2019-03-23T12:45:32.301Z,23.20
2019-03-23T12:48:03.288Z,22.97
2019-03-23T12:50:34.407Z,22.12
2019-03-23T12:53:05.674Z,21.34
2019-03-23T12:55:36.821Z,20.00
2019-03-23T12:58:09.532Z,20.04
2019-03-23T13:00:40.637Z,19.16
2019-03-23T13:03:11.637Z,18.99
2019-03-23T13:05:42.863Z,18.50
2019-03-23T13:08:13.940Z,20.56
2019-03-23T13:10:45.285Z,20.17
2019-03-23T13:13:16.504Z,19.61
2019-03-23T13:15:49.219Z,19.82
2019-03-23T13:18:27.178Z,19.82
2019-03-23T13:20:54.790Z,21.77
2019-03-23T13:23:25.935Z,22.00
2019-03-23T13:25:56.976Z,21.55
2019-03-23T13:28:28.124Z,22.54
2019-03-23T13:30:59.200Z,22.26
2019-03-23T13:33:30.409Z,22.48
2019-03-23T13:36:01.582Z,21.84
2019-03-23T13:38:32.541Z,22.32
2019-03-23T13:41:09.860Z,21.03
2019-03-23T13:43:41.029Z,20.19
2019-03-23T13:46:12.244Z,20.19
2019-03-23T13:48:43.366Z,19.41
2019-03-23T13:51:15.727Z,19.41
2019-03-23T13:53:46.906Z,19.41
2019-03-23T13:56:17.956Z,20.21
2019-03-23T13:58:49.216Z,20.21
2019-03-23T14:01:20.352Z,20.74
2019-03-23T14:03:51.512Z,21.26
2019-03-23T14:06:22.590Z,20.92
2019-03-23T14:08:53.790Z,21.96
2019-03-23T14:11:24.782Z,20.95
2019-03-23T14:13:55.812Z,22.09
2019-03-23T14:16:26.868Z,21.66
2019-03-23T14:18:57.846Z,24.66
2019-03-23T14:21:28.902Z,23.67
2019-03-23T14:23:59.952Z,23.64
2019-03-23T14:26:31.198Z,22.34
2019-03-23T14:29:02.173Z,22.60
2019-03-23T14:31:33.249Z,22.60
2019-03-23T14:34:04.362Z,24.52
2019-03-23T14:36:35.504Z,24.52
2019-03-23T14:39:07.303Z,25.38
2019-03-23T14:41:38.501Z,26.89
2019-03-23T14:44:09.525Z,27.00
2019-03-23T14:46:40.590Z,25.59
2019-03-23T14:49:11.762Z,26.64
2019-03-23T14:51:42.667Z,27.75
2019-03-23T14:54:14.026Z,27.49
2019-03-23T14:56:45.146Z,26.46
2019-03-23T14:59:16.250Z,24.99
2019-03-23T15:01:47.394Z,24.63
2019-03-23T15:04:42.883Z,24.14
2019-03-23T15:07:20.812Z,25.12
2019-03-23T15:09:51.919Z,25.99
2019-03-23T15:12:22.931Z,25.59
2019-03-23T15:14:54.272Z,25.50
2019-03-23T15:17:25.333Z,25.56
2019-03-23T15:19:56.382Z,25.15
2019-03-23T15:22:27.414Z,26.74
2019-03-23T15:24:58.495Z,26.74
2019-03-23T15:27:29.632Z,26.32
2019-03-23T15:30:01.197Z,27.76
2019-03-23T15:32:32.469Z,27.52
2019-03-23T15:35:04.625Z,27.60
2019-03-23T15:37:35.651Z,26.86
2019-03-23T15:40:07.721Z,27.26
2019-03-23T15:42:40.364Z,28.18
2019-03-23T15:45:12.316Z,27.01
2019-03-23T15:47:43.652Z,27.27
2019-03-23T15:50:15.027Z,27.19
2019-03-23T15:52:46.118Z,27.40
2019-03-23T15:55:17.581Z,27.00
2019-03-23T15:58:04.991Z,26.81
2019-03-23T16:00:36.330Z,27.55
2019-03-23T16:03:07.589Z,29.81
2019-03-23T16:05:38.861Z,30.47
2019-03-23T16:08:09.814Z,30.33
2019-03-23T16:10:40.718Z,29.79
2019-03-23T16:13:11.685Z,29.77
2019-03-23T16:15:43.008Z,30.58
2019-03-23T16:18:13.965Z,30.49
2019-03-23T16:20:45.049Z,30.30
2019-03-23T16:23:16.134Z,30.43
2019-03-23T16:25:47.169Z,31.02
2019-03-23T16:28:18.342Z,31.71
2019-03-23T16:30:49.380Z,31.82
2019-03-23T16:33:20.579Z,31.88
2019-03-23T16:35:51.562Z,32.26
2019-03-23T16:38:25.654Z,32.62
2019-03-23T16:40:56.695Z,33.14
2019-03-23T16:43:28.031Z,33.00
2019-03-23T16:45:59.237Z,33.59
2019-03-23T16:48:30.891Z,34.00
2019-03-23T16:51:02.000Z,34.71
2019-03-23T16:53:33.261Z,34.86
2019-03-23T16:56:04.555Z,36.03
2019-03-23T16:58:35.911Z,36.03
2019-03-23T17:01:07.207Z,36.11
2019-03-23T17:03:38.295Z,36.37
2019-03-23T17:06:13.414Z,36.91
2019-03-23T17:08:44.737Z,37.30
2019-03-23T17:11:15.833Z,37.55
2019-03-23T17:13:46.860Z,37.95
2019-03-23T17:16:18.155Z,38.66
2019-03-23T17:18:49.224Z,39.52
2019-03-23T17:21:20.239Z,39.74
2019-03-23T17:23:51.315Z,40.39
2019-03-23T17:26:22.450Z,40.98
2019-03-23T17:28:53.428Z,41.65
2019-03-23T17:31:25.025Z,42.36
2019-03-23T17:33:56.407Z,42.33
2019-03-23T17:36:27.402Z,42.80
2019-03-23T17:38:58.520Z,43.32
2019-03-23T17:41:29.534Z,43.74
2019-03-23T17:44:00.537Z,44.38
2019-03-23T17:46:31.843Z,44.32
2019-03-23T17:49:02.935Z,45.12
2019-03-23T17:51:33.871Z,45.33
2019-03-23T17:54:05.260Z,45.96
2019-03-23T17:56:47.328Z,46.12
2019-03-23T17:59:18.824Z,46.39
2019-03-23T18:01:49.976Z,46.90
2019-03-23T18:04:21.039Z,46.90
2019-03-23T18:06:52.288Z,47.50
2019-03-23T18:09:23.332Z,47.37
2019-03-23T18:11:54.282Z,47.44
2019-03-23T18:14:25.371Z,47.98
2019-03-23T18:16:56.476Z,48.56
2019-03-23T18:19:27.726Z,49.23
2019-03-23T18:21:58.845Z,49.24
2019-03-23T18:24:31.687Z,49.52
2019-03-23T18:30:45.831Z,50.80
2019-03-23T18:33:33.774Z,51.64
2019-03-23T18:36:14.754Z,51.86
2019-03-23T18:38:53.758Z,52.01
2019-03-23T18:41:37.168Z,52.37
2019-03-23T18:44:16.240Z,52.97
2019-03-23T18:46:43.919Z,53.05
2019-03-23T18:49:15.133Z,53.26
2019-03-23T18:51:46.163Z,53.70
2019-03-23T18:54:17.242Z,54.23
2019-03-23T18:56:48.138Z,54.20
2019-03-23T18:59:19.140Z,54.52
2019-03-23T19:01:50.090Z,54.30
2019-03-23T19:04:23.205Z,55.36
2019-03-23T19:06:54.369Z,55.58
2019-03-23T19:09:25.725Z,55.74
2019-03-23T19:11:57.621Z,56.28
2019-03-23T19:14:32.110Z,56.29
2019-03-23T19:17:03.149Z,57.24
2019-03-23T19:19:34.400Z,57.88
2019-03-23T19:22:07.691Z,58.37
2019-03-23T19:24:38.755Z,58.68
2019-03-23T19:27:09.736Z,58.77
2019-03-23T19:29:40.748Z,59.39
2019-03-23T19:32:13.077Z,60.09
2019-03-23T19:34:43.944Z,61.24
2019-03-23T19:37:15.044Z,62.05
2019-03-23T19:39:47.080Z,62.68
2019-03-23T19:42:18.021Z,61.67
2019-03-23T19:44:49.014Z,62.09
2019-03-23T19:47:21.910Z,62.67
2019-03-23T19:49:52.975Z,62.87
2019-03-23T19:52:24.087Z,63.32
2019-03-23T19:54:55.067Z,63.91
2019-03-23T19:57:26.501Z,65.12
2019-03-23T19:59:57.543Z,65.53
2019-03-23T20:02:29.684Z,65.84
2019-03-23T20:05:00.582Z,66.61
2019-03-23T20:07:33.233Z,66.65
2019-03-23T20:10:08.749Z,67.07
2019-03-23T20:12:39.743Z,67.32
2019-03-23T20:15:12.817Z,68.83
2019-03-23T20:17:44.286Z,68.91
2019-03-23T20:20:16.868Z,68.95
2019-03-23T20:22:47.946Z,69.15
2019-03-23T20:25:20.714Z,69.71
2019-03-23T20:27:51.805Z,69.86
2019-03-23T20:30:22.968Z,70.33
2019-03-23T20:32:53.976Z,70.27
2019-03-23T20:35:25.407Z,70.06
2019-03-23T20:37:56.547Z,70.26
2019-03-23T20:40:27.645Z,70.60
2019-03-23T20:42:58.982Z,71.19
2019-03-23T20:45:30.864Z,71.57
2019-03-23T20:48:02.361Z,72.22
2019-03-23T20:50:33.785Z,74.16
2019-03-23T20:53:05.153Z,74.86
2019-03-23T20:55:36.633Z,74.17
2019-03-23T20:58:07.990Z,74.68
2019-03-23T21:00:40.749Z,74.42
2019-03-23T21:03:11.735Z,74.18
2019-03-23T21:05:42.823Z,74.01
2019-03-23T21:08:13.725Z,74.37
2019-03-23T21:10:45.916Z,73.71
2019-03-23T21:13:17.495Z,73.96
2019-03-23T21:16:08.937Z,73.85
2019-03-23T21:18:48.268Z,75.00
2019-03-23T21:21:21.430Z,76.07
2019-03-23T21:23:52.484Z,75.72
2019-03-23T21:26:23.441Z,75.58
2019-03-23T21:28:54.457Z,76.20
2019-03-23T21:31:26.374Z,76.24
2019-03-23T21:33:57.471Z,76.53
2019-03-23T21:36:30.859Z,76.92
2019-03-23T21:39:03.339Z,76.87
2019-03-23T21:41:35.735Z,78.13
2019-03-23T21:44:08.393Z,80.38
2019-03-23T21:46:39.353Z,81.74
2019-03-23T21:49:10.471Z,85.85
2019-03-23T21:51:41.412Z,86.40
2019-03-23T21:54:13.080Z,85.63
2019-03-23T21:56:44.029Z,84.91
2019-03-23T21:59:15.088Z,84.32
2019-03-23T22:01:46.293Z,83.49
2019-03-23T22:04:17.374Z,82.41
2019-03-23T22:06:48.334Z,82.39
2019-03-23T22:09:19.252Z,81.34
2019-03-23T22:11:50.309Z,81.86
2019-03-23T22:14:21.313Z,82.12
2019-03-23T22:16:53.828Z,81.94
2019-03-23T22:19:25.680Z,81.83
2019-03-23T22:21:56.968Z,81.59
2019-03-23T22:24:28.109Z,81.42
2019-03-23T22:26:59.273Z,82.21
2019-03-23T22:29:30.606Z,82.63
2019-03-23T22:32:01.758Z,83.05
2019-03-23T22:34:32.880Z,84.62
2019-03-23T22:37:04.044Z,84.93
2019-03-23T22:39:35.386Z,86.05
2019-03-23T22:42:06.823Z,85.23
2019-03-23T22:44:37.985Z,85.56
2019-03-23T22:47:09.300Z,85.34
2019-03-23T22:49:40.368Z,85.26
2019-03-23T22:52:11.439Z,86.03
2019-03-23T22:54:42.396Z,86.57
2019-03-23T22:57:13.563Z,87.08
2019-03-23T22:59:44.817Z,88.30
2019-03-23T23:02:16.101Z,88.60
2019-03-23T23:04:47.194Z,89.62
2019-03-23T23:07:18.403Z,90.83
2019-03-23T23:09:49.595Z,92.04
2019-03-23T23:12:20.756Z,92.28
2019-03-23T23:14:53.711Z,92.79
2019-03-23T23:17:24.442Z,92.47
2019-03-23T23:19:55.364Z,92.89
2019-03-23T23:22:26.568Z,92.62
2019-03-23T23:24:57.472Z,92.47
2019-03-23T23:27:28.448Z,92.34
2019-03-23T23:29:59.728Z,92.36
2019-03-23T23:32:30.789Z,91.75
2019-03-23T23:35:01.933Z,90.98
2019-03-23T23:37:32.932Z,90.15
2019-03-23T23:40:06.198Z,89.79
2019-03-23T23:42:37.412Z,89.57
2019-03-23T23:45:15.339Z,89.23
2019-03-23T23:47:42.317Z,89.53
2019-03-23T23:50:13.513Z,88.79
2019-03-23T23:52:44.491Z,88.94
2019-03-23T23:55:15.541Z,88.58
2019-03-23T23:57:46.556Z,89.01
